AEA7019 LEMD-LEIB
Flight info
| Callsign | AEA7019 |
|---|---|
| Flight time | N/A |
| Altitude | 32000 |
| Route | NANDO T257 MABUX M871 LASPO Z224 VARUT |
| Aircraft | B738/M-V/N |
Departure
| Time | 2026-05-01 15:29 |
|---|---|
| Airport | Adolfo Suárez Madrid–Barajas Airport (LEMD) |
Arrival
| Time | N/A |
|---|---|
| Airport | Ibiza Airport (LEIB) |
| Time | Latitude | Longitude | Altitude | Speed | Heading |
|---|---|---|---|---|---|
| 2026-05-01 15:05 | 40.46715 | -3.56806 | 1959 ft | 0 kts | 282° |
| 2026-05-01 15:12 | 40.46709 | -3.56770 | 1959 ft | 2 kts | 282° |
| 2026-05-01 15:12 | 40.46707 | -3.56757 | 1959 ft | 2 kts | 282° |
| 2026-05-01 15:13 | 40.46694 | -3.56701 | 1959 ft | 2 kts | 307° |
| 2026-05-01 15:14 | 40.46666 | -3.56675 | 1959 ft | 2 kts | 343° |
| 2026-05-01 15:14 | 40.46652 | -3.56671 | 1959 ft | 1 kts | 359° |
| 2026-05-01 15:14 | 40.46643 | -3.56672 | 1959 ft | 0 kts | 4° |
| 2026-05-01 15:18 | 40.46659 | -3.56672 | 1959 ft | 9 kts | 355° |
| 2026-05-01 15:18 | 40.46764 | -3.56669 | 1959 ft | 21 kts | 6° |
| 2026-05-01 15:19 | 40.47126 | -3.56497 | 1959 ft | 30 kts | 332° |
| 2026-05-01 15:19 | 40.47475 | -3.56838 | 1959 ft | 30 kts | 325° |
| 2026-05-01 15:19 | 40.47586 | -3.56950 | 1959 ft | 30 kts | 322° |
| 2026-05-01 15:20 | 40.47971 | -3.57342 | 1959 ft | 28 kts | 322° |
| 2026-05-01 15:20 | 40.48087 | -3.57461 | 1959 ft | 9 kts | 326° |
| 2026-05-01 15:20 | 40.48090 | -3.57465 | 1959 ft | 0 kts | 314° |
| 2026-05-01 15:21 | 40.48103 | -3.57479 | 1959 ft | 9 kts | 320° |
| 2026-05-01 15:21 | 40.48208 | -3.57585 | 1959 ft | 25 kts | 320° |
| 2026-05-01 15:21 | 40.48359 | -3.57740 | 1959 ft | 21 kts | 321° |
| 2026-05-01 15:21 | 40.48504 | -3.57866 | 1959 ft | 27 kts | 329° |
| 2026-05-01 15:22 | 40.48770 | -3.57819 | 1959 ft | 19 kts | 86° |
| 2026-05-01 15:22 | 40.48769 | -3.57614 | 1959 ft | 20 kts | 89° |
| 2026-05-01 15:22 | 40.48768 | -3.57420 | 1959 ft | 22 kts | 90° |
| 2026-05-01 15:23 | 40.48767 | -3.57185 | 1959 ft | 27 kts | 92° |
| 2026-05-01 15:23 | 40.48768 | -3.56958 | 1959 ft | 27 kts | 90° |
| 2026-05-01 15:23 | 40.48769 | -3.56702 | 1959 ft | 27 kts | 92° |
| 2026-05-01 15:23 | 40.48770 | -3.56483 | 1959 ft | 16 kts | 88° |
| 2026-05-01 15:24 | 40.48774 | -3.56325 | 1959 ft | 18 kts | 91° |
| 2026-05-01 15:24 | 40.48780 | -3.56163 | 1959 ft | 17 kts | 60° |
| 2026-05-01 15:24 | 40.48844 | -3.56135 | 1959 ft | 13 kts | 2° |
| 2026-05-01 15:24 | 40.48982 | -3.56139 | 1959 ft | 18 kts | 1° |
| 2026-05-01 15:25 | 40.49128 | -3.56140 | 1959 ft | 21 kts | 359° |
| 2026-05-01 15:25 | 40.49263 | -3.56140 | 1959 ft | 19 kts | 1° |
| 2026-05-01 15:25 | 40.49371 | -3.56146 | 1959 ft | 7 kts | 355° |
| 2026-05-01 15:25 | 40.49386 | -3.56147 | 1959 ft | 1 kts | 349° |
| 2026-05-01 15:26 | 40.49402 | -3.56144 | 1959 ft | 1 kts | 38° |
| 2026-05-01 15:26 | 40.49414 | -3.56134 | 1959 ft | 4 kts | 29° |
| 2026-05-01 15:26 | 40.49418 | -3.56082 | 1959 ft | 12 kts | 94° |
| 2026-05-01 15:26 | 40.49415 | -3.55892 | 1959 ft | 21 kts | 93° |
| 2026-05-01 15:27 | 40.49412 | -3.55716 | 1959 ft | 12 kts | 108° |
| 2026-05-01 15:27 | 40.49382 | -3.55666 | 1959 ft | 0 kts | 139° |
| 2026-05-01 15:29 | 40.49124 | -3.55406 | 1959 ft | 93 kts | 142° |
| 2026-05-01 15:29 | 40.48383 | -3.54669 | 2092 ft | 164 kts | 144° |
| 2026-05-01 15:29 | 40.46598 | -3.52907 | 4008 ft | 172 kts | 143° |
| 2026-05-01 15:30 | 40.44856 | -3.51107 | 5295 ft | 218 kts | 143° |
| 2026-05-01 15:31 | 40.40029 | -3.42384 | 9102 ft | 331 kts | 122° |
| 2026-05-01 15:31 | 40.37613 | -3.37011 | 10817 ft | 344 kts | 122° |
| 2026-05-01 15:32 | 40.35352 | -3.31478 | 12349 ft | 351 kts | 115° |
| 2026-05-01 15:32 | 40.33469 | -3.25489 | 13757 ft | 361 kts | 115° |
| 2026-05-01 15:33 | 40.30407 | -3.16403 | 14926 ft | 367 kts | 130° |
| 2026-05-01 15:34 | 40.23853 | -3.11878 | 16833 ft | 367 kts | 155° |